createdAt,value
2023-03-05T00:00:02.119Z,98945.86
2023-03-05T00:02:36.635Z,98948.92
2023-03-05T00:05:19.946Z,98956.86
2023-03-05T00:07:54.078Z,98962.22
2023-03-05T00:10:27.055Z,98966.69
2023-03-05T00:13:00.243Z,98962.42
2023-03-05T00:15:33.344Z,98967.75
2023-03-05T00:18:06.460Z,98965.09
2023-03-05T00:20:39.084Z,98978.22
2023-03-05T00:23:11.745Z,98973.85
2023-03-05T00:25:46.091Z,98974.52
2023-03-05T00:28:18.607Z,98976.52
2023-03-05T00:30:52.607Z,98981.50
2023-03-05T00:33:25.252Z,98979.92
2023-03-05T00:35:58.844Z,98978.11
2023-03-05T00:38:31.171Z,98983.73
2023-03-05T00:41:03.701Z,98984.21
2023-03-05T00:43:36.817Z,98993.55
2023-03-05T00:46:09.905Z,98985.48
2023-03-05T00:48:42.307Z,99001.56
2023-03-05T00:51:15.168Z,99008.99
2023-03-05T00:53:47.798Z,98996.14
2023-03-05T00:56:20.240Z,99012.59
2023-03-05T00:58:53.892Z,99006.70
2023-03-05T01:01:27.737Z,99007.94
2023-03-05T01:04:01.386Z,99008.41
2023-03-05T01:06:34.065Z,99013.45
2023-03-05T01:09:07.825Z,99022.69
2023-03-05T01:11:40.612Z,99029.34
2023-03-05T01:14:13.348Z,99025.16
2023-03-05T01:16:45.885Z,99029.53
2023-03-05T01:19:18.650Z,99022.09
2023-03-05T01:21:51.052Z,99029.31
2023-03-05T01:24:25.491Z,99029.72
2023-03-05T01:26:57.898Z,99027.80
2023-03-05T01:29:30.252Z,99019.91
2023-03-05T01:32:03.899Z,99031.33
2023-03-05T01:34:38.692Z,99040.36
2023-03-05T01:37:12.860Z,99028.48
2023-03-05T01:39:45.335Z,99035.78
2023-03-05T01:42:19.552Z,99034.45
2023-03-05T01:45:10.188Z,99029.58
2023-03-05T01:47:42.585Z,99038.06
2023-03-05T01:50:18.409Z,99024.16
2023-03-05T01:52:55.738Z,99035.39
2023-03-05T01:55:29.790Z,99050.59
2023-03-05T01:58:11.594Z,99038.88
2023-03-05T02:00:49.975Z,99037.55
2023-03-05T02:03:22.276Z,99045.25
2023-03-05T02:05:54.839Z,99051.32
2023-03-05T02:08:28.989Z,99059.30
2023-03-05T02:11:02.866Z,99045.25
2023-03-05T02:13:37.902Z,99057.39
2023-03-05T02:16:10.797Z,99055.09
2023-03-05T02:18:44.108Z,99065.36
2023-03-05T02:21:16.731Z,99061.81
2023-03-05T02:23:49.272Z,99066.81
2023-03-05T02:26:21.695Z,99065.30
2023-03-05T02:28:58.106Z,99070.08
2023-03-05T02:31:31.356Z,99077.50
2023-03-05T02:34:05.483Z,99072.75
2023-03-05T02:36:38.800Z,99084.92
2023-03-05T02:39:11.488Z,99081.91
2023-03-05T02:41:44.055Z,99083.07
2023-03-05T02:44:16.840Z,99086.33
2023-03-05T02:46:49.444Z,99079.77
2023-03-05T02:49:21.999Z,99085.64
2023-03-05T02:51:54.265Z,99079.19
2023-03-05T02:54:27.387Z,99076.16
2023-03-05T02:57:00.283Z,99083.69
2023-03-05T02:59:32.839Z,99084.92
2023-03-05T03:02:05.649Z,99076.16
2023-03-05T03:04:38.847Z,99082.81
2023-03-05T03:07:12.518Z,99084.83
2023-03-05T03:09:46.112Z,99088.45
2023-03-05T03:12:19.377Z,99087.48
2023-03-05T03:14:51.793Z,99092.81
2023-03-05T03:17:24.863Z,99093.37
2023-03-05T03:19:57.338Z,99099.56
2023-03-05T03:22:29.819Z,99097.36
2023-03-05T03:25:02.600Z,99093.59
2023-03-05T03:27:35.182Z,99099.75
2023-03-05T03:30:09.072Z,99100.43
2023-03-05T03:32:41.975Z,99094.88
2023-03-05T03:35:14.529Z,99103.19
2023-03-05T03:37:46.821Z,99098.23
2023-03-05T03:40:20.042Z,99085.30
2023-03-05T03:42:56.324Z,99099.10
2023-03-05T03:45:29.086Z,99103.84
2023-03-05T03:48:01.793Z,99104.81
2023-03-05T03:50:34.344Z,99101.97
2023-03-05T03:53:06.930Z,99106.34
2023-03-05T03:55:42.697Z,99107.31
2023-03-05T03:58:15.608Z,99110.73
2023-03-05T04:00:48.184Z,99100.64
2023-03-05T04:03:21.285Z,99097.02
2023-03-05T04:05:54.168Z,99095.50
2023-03-05T04:08:27.142Z,99101.97
2023-03-05T04:11:02.432Z,99105.59
2023-03-05T04:13:35.151Z,99104.45
2023-03-05T04:16:20.390Z,99106.52
2023-03-05T04:18:52.062Z,99114.72
2023-03-05T04:21:24.429Z,99124.42
2023-03-05T04:23:56.822Z,99134.44
2023-03-05T04:26:30.327Z,99127.09
2023-03-05T04:29:02.708Z,99127.27
2023-03-05T04:31:35.061Z,99122.81
2023-03-05T04:34:08.129Z,99129.56
2023-03-05T04:36:41.390Z,99123.45
2023-03-05T04:39:14.469Z,99133.73
2023-03-05T04:41:49.179Z,99127.36
2023-03-05T04:44:23.472Z,99133.38
2023-03-05T04:46:55.994Z,99136.59
2023-03-05T04:49:28.482Z,99132.42
2023-03-05T04:52:00.930Z,99132.92
2023-03-05T04:54:33.558Z,99132.23
2023-03-05T04:57:06.240Z,99139.94
2023-03-05T04:59:40.208Z,99146.51
2023-03-05T05:02:13.535Z,99141.19
2023-03-05T05:04:46.590Z,99150.43
2023-03-05T05:07:19.165Z,99142.91
2023-03-05T05:09:52.669Z,99138.82
2023-03-05T05:12:25.166Z,99144.64
2023-03-05T05:15:00.306Z,99145.75
2023-03-05T05:17:34.272Z,99151.77
2023-03-05T05:20:08.433Z,99160.13
2023-03-05T05:22:43.047Z,99156.82
2023-03-05T05:25:15.512Z,99153.02
2023-03-05T05:27:48.718Z,99150.16
2023-03-05T05:30:21.357Z,99161.87
2023-03-05T05:32:53.824Z,99165.09
2023-03-05T05:35:26.361Z,99168.03
2023-03-05T05:37:59.012Z,99161.47
2023-03-05T05:40:31.455Z,99172.39
2023-03-05T05:43:04.163Z,99170.31
2023-03-05T05:45:39.131Z,99149.66
2023-03-05T05:48:11.804Z,99155.58
2023-03-05T05:50:45.352Z,99159.89
2023-03-05T05:53:18.048Z,99159.89
2023-03-05T05:55:51.140Z,99158.75
2023-03-05T05:58:24.126Z,99159.12
2023-03-05T06:00:57.189Z,99160.81
2023-03-05T06:03:29.842Z,99163.67
2023-03-05T06:06:02.540Z,99167.08
2023-03-05T06:08:36.148Z,99172.81
2023-03-05T06:11:08.987Z,99164.20
2023-03-05T06:13:42.537Z,99171.47
2023-03-05T06:16:18.641Z,99169.53
2023-03-05T06:18:51.891Z,99169.25
2023-03-05T06:21:24.272Z,99169.23
2023-03-05T06:23:58.896Z,99174.91
2023-03-05T06:26:30.650Z,99172.17
2023-03-05T06:29:02.824Z,99173.72
2023-03-05T06:31:37.275Z,99175.31
2023-03-05T06:34:09.294Z,99175.09
2023-03-05T06:36:43.294Z,99175.52
2023-03-05T06:39:16.295Z,99181.01
2023-03-05T06:41:52.358Z,99189.30
2023-03-05T06:44:25.884Z,99180.04
2023-03-05T06:46:58.383Z,99190.03
2023-03-05T06:49:31.480Z,99184.90
2023-03-05T06:52:04.732Z,99191.78
2023-03-05T06:54:37.020Z,99174.46
2023-03-05T06:57:11.337Z,99182.28
2023-03-05T06:59:43.783Z,99190.00
2023-03-05T07:02:16.153Z,99184.77
2023-03-05T07:04:49.006Z,99191.92
2023-03-05T07:07:22.213Z,99177.54
2023-03-05T07:09:54.636Z,99187.50
2023-03-05T07:12:27.079Z,99184.34
2023-03-05T07:14:59.456Z,99186.55
2023-03-05T07:17:31.899Z,99202.44
2023-03-05T07:20:06.457Z,99191.88
2023-03-05T07:22:39.843Z,99199.14
2023-03-05T07:25:12.657Z,99206.91
2023-03-05T07:27:45.263Z,99202.84
2023-03-05T07:30:17.875Z,99201.75
2023-03-05T07:32:51.637Z,99207.87
2023-03-05T07:35:24.822Z,99209.44
2023-03-05T07:38:08.692Z,99216.23
2023-03-05T07:40:41.118Z,99218.70
2023-03-05T07:43:14.829Z,99218.88
2023-03-05T07:45:49.020Z,99226.63
2023-03-05T07:48:22.145Z,99221.49
2023-03-05T07:51:04.443Z,99227.05
2023-03-05T07:53:36.951Z,99221.42
2023-03-05T07:56:09.568Z,99222.67
2023-03-05T07:58:42.066Z,99223.98
2023-03-05T08:01:15.057Z,99226.74
2023-03-05T08:03:47.581Z,99216.92
2023-03-05T08:06:20.838Z,99217.94
2023-03-05T08:08:53.536Z,99211.61
2023-03-05T08:11:26.785Z,99210.48
2023-03-05T08:14:01.273Z,99213.02
2023-03-05T08:16:33.786Z,99215.25
2023-03-05T08:19:07.060Z,99224.51
2023-03-05T08:21:40.708Z,99206.14
2023-03-05T08:24:13.264Z,99210.45
2023-03-05T08:26:46.024Z,99214.23
2023-03-05T08:29:18.784Z,99221.77
2023-03-05T08:31:53.757Z,99231.84
2023-03-05T08:34:26.604Z,99227.48
2023-03-05T08:36:59.240Z,99227.29
2023-03-05T08:39:31.844Z,99223.49
2023-03-05T08:42:08.020Z,99223.31
2023-03-05T08:44:40.707Z,99234.41
2023-03-05T08:47:13.658Z,99237.85
2023-03-05T08:49:46.096Z,99227.89
2023-03-05T08:52:18.381Z,99231.23
2023-03-05T08:54:50.865Z,99232.77
2023-03-05T08:57:23.483Z,99239.20
2023-03-05T08:59:56.141Z,99240.41
2023-03-05T09:02:28.878Z,99239.28
2023-03-05T09:05:01.478Z,99256.27
2023-03-05T09:07:34.270Z,99248.31
2023-03-05T09:10:08.054Z,99248.99
2023-03-05T09:12:41.828Z,99238.73
2023-03-05T09:15:16.350Z,99244.30
2023-03-05T09:17:48.814Z,99254.09
2023-03-05T09:20:21.420Z,99246.16
2023-03-05T09:22:54.750Z,99251.05
2023-03-05T09:25:28.205Z,99244.94
2023-03-05T09:28:00.863Z,99249.54
2023-03-05T09:30:35.201Z,99243.66
2023-03-05T09:33:07.814Z,99228.45
2023-03-05T09:35:41.528Z,99247.88
2023-03-05T09:38:24.933Z,99236.08
2023-03-05T09:41:10.509Z,99243.59
2023-03-05T09:44:05.532Z,99245.39
2023-03-05T09:46:57.668Z,99247.37
2023-03-05T09:49:54.730Z,99242.58
2023-03-05T09:52:43.547Z,99237.09
2023-03-05T09:55:23.634Z,99242.62
2023-03-05T09:58:01.241Z,99224.13
2023-03-05T10:00:40.380Z,99225.72
2023-03-05T10:03:35.793Z,99229.28
2023-03-05T10:06:46.754Z,99230.05
2023-03-05T10:09:42.275Z,99226.45
2023-03-05T10:12:43.963Z,99225.89
2023-03-05T10:15:39.713Z,99226.50
2023-03-05T10:18:42.875Z,99221.13
2023-03-05T10:21:21.128Z,99222.41
2023-03-05T10:24:13.052Z,99230.61
2023-03-05T10:27:09.792Z,99239.19
2023-03-05T10:30:14.201Z,99220.45
2023-03-05T10:32:55.967Z,99221.02
2023-03-05T10:35:51.120Z,99221.56
2023-03-05T10:38:28.814Z,99211.88
2023-03-05T10:41:21.977Z,99216.87
2023-03-05T10:46:58.812Z,99219.73
2023-03-05T10:49:35.522Z,99229.47
2023-03-05T10:52:11.850Z,99215.52
2023-03-05T10:54:44.405Z,99207.36
2023-03-05T10:57:21.391Z,99216.53
2023-03-05T11:00:04.120Z,99199.59
2023-03-05T11:02:38.868Z,99204.37
2023-03-05T11:05:41.643Z,99218.16
2023-03-05T11:08:35.758Z,99219.55
2023-03-05T11:11:20.331Z,99213.84
2023-03-05T11:14:06.326Z,99217.47
2023-03-05T11:16:51.105Z,99218.09
2023-03-05T11:19:34.477Z,99218.70
2023-03-05T11:22:24.995Z,99219.47
2023-03-05T11:25:19.132Z,99223.02
2023-03-05T11:27:55.473Z,99222.87
2023-03-05T11:30:37.465Z,99220.64
2023-03-05T11:33:41.076Z,99224.25
2023-03-05T11:36:35.238Z,99227.91
2023-03-05T11:39:11.931Z,99226.19
2023-03-05T11:42:00.821Z,99200.86
2023-03-05T11:44:48.850Z,99216.61
2023-03-05T11:47:34.995Z,99216.14
2023-03-05T11:50:15.769Z,99213.28
2023-03-05T11:53:10.149Z,99211.55
2023-03-05T11:56:13.085Z,99211.16
2023-03-05T11:59:02.478Z,99210.45
2023-03-05T12:01:39.241Z,99211.69
2023-03-05T12:04:12.404Z,99215.50
2023-03-05T12:07:04.099Z,99213.27
2023-03-05T12:09:44.197Z,99208.41
2023-03-05T12:12:39.590Z,99212.36
2023-03-05T12:15:59.307Z,99223.47
2023-03-05T12:18:57.680Z,99223.84
2023-03-05T12:21:36.964Z,99221.67
2023-03-05T12:24:32.718Z,99209.05
2023-03-05T12:27:09.774Z,99208.16
2023-03-05T12:29:52.910Z,99214.44
2023-03-05T12:32:34.156Z,99209.73
2023-03-05T12:35:30.093Z,99207.05
2023-03-05T12:38:24.417Z,99215.59
2023-03-05T12:40:39.373Z,99209.88
2023-03-05T12:43:33.357Z,99222.70
2023-03-05T12:46:28.764Z,99218.78
2023-03-05T12:49:01.927Z,99216.36
2023-03-05T12:51:40.280Z,99216.21
2023-03-05T12:54:47.392Z,99218.42
2023-03-05T12:57:23.984Z,99217.08
2023-03-05T13:00:13.401Z,99218.30
2023-03-05T13:02:59.328Z,99217.94
2023-03-05T13:05:53.979Z,99211.70
2023-03-05T13:08:32.412Z,99210.13
2023-03-05T13:11:19.789Z,99212.81
2023-03-05T13:13:52.513Z,99208.66
2023-03-05T13:16:30.718Z,99207.43
2023-03-05T13:19:03.478Z,99205.25
2023-03-05T13:21:36.529Z,99205.38
2023-03-05T13:24:20.710Z,99199.25
2023-03-05T13:26:53.023Z,99199.13
2023-03-05T13:29:29.019Z,99195.22
2023-03-05T13:32:29.478Z,99194.36
2023-03-05T13:35:02.294Z,99189.12
2023-03-05T13:37:36.621Z,99201.09
2023-03-05T13:40:25.605Z,99188.02
2023-03-05T13:42:59.532Z,99189.73
2023-03-05T13:45:33.092Z,99191.31
2023-03-05T13:48:07.218Z,99188.36
2023-03-05T13:51:01.395Z,99185.43
2023-03-05T13:53:34.872Z,99180.93
2023-03-05T13:56:09.605Z,99190.67
2023-03-05T13:59:19.843Z,99184.91
2023-03-05T14:01:53.541Z,99186.64
2023-03-05T14:04:31.504Z,99182.58
2023-03-05T14:07:25.009Z,99184.02
2023-03-05T14:09:57.444Z,99187.92
2023-03-05T14:12:42.666Z,99172.70
2023-03-05T14:15:25.308Z,99174.52
2023-03-05T14:18:18.071Z,99176.49
2023-03-05T14:21:12.449Z,99176.73
2023-03-05T14:24:16.694Z,99187.23
2023-03-05T14:26:58.049Z,99184.02
2023-03-05T14:29:30.325Z,99181.58
2023-03-05T14:32:07.074Z,99178.30
2023-03-05T14:34:43.591Z,99173.30
2023-03-05T14:37:29.463Z,99183.44
2023-03-05T14:40:14.195Z,99179.25
2023-03-05T14:42:56.702Z,99181.58
2023-03-05T14:45:32.448Z,99179.52
2023-03-05T14:48:06.958Z,99178.02
2023-03-05T14:50:50.534Z,99178.64
2023-03-05T14:53:28.220Z,99175.57
2023-03-05T14:56:02.339Z,99175.34
2023-03-05T14:58:35.731Z,99176.45
2023-03-05T15:01:08.748Z,99177.07
2023-03-05T15:03:41.728Z,99170.71
2023-03-05T15:06:34.418Z,99173.62
2023-03-05T15:09:07.462Z,99173.87
2023-03-05T15:11:40.323Z,99175.45
2023-03-05T15:14:13.675Z,99175.45
2023-03-05T15:16:47.835Z,99182.27
2023-03-05T15:19:20.766Z,99171.92
2023-03-05T15:21:53.598Z,99175.43
2023-03-05T15:24:26.565Z,99177.24
2023-03-05T15:26:59.055Z,99177.87
2023-03-05T15:29:31.732Z,99178.45
2023-03-05T15:32:05.566Z,99178.09
2023-03-05T15:34:38.008Z,99178.69
2023-03-05T15:37:10.555Z,99184.67
2023-03-05T15:39:43.084Z,99183.05
2023-03-05T15:42:16.122Z,99185.84
2023-03-05T15:44:49.670Z,99184.27
2023-03-05T15:47:21.976Z,99182.31
2023-03-05T15:49:54.528Z,99178.88
2023-03-05T15:52:27.094Z,99186.56
2023-03-05T15:55:01.843Z,99185.70
2023-03-05T15:57:37.627Z,99192.52
2023-03-05T16:00:11.801Z,99189.36
2023-03-05T16:02:44.730Z,99190.53
2023-03-05T16:05:17.276Z,99189.56
2023-03-05T16:07:52.216Z,99191.72
2023-03-05T16:10:27.222Z,99194.63
2023-03-05T16:13:05.230Z,99207.24
2023-03-05T16:15:39.509Z,99194.30
2023-03-05T16:18:15.520Z,99205.38
2023-03-05T16:20:48.714Z,99214.33
2023-03-05T16:23:22.401Z,99205.50
2023-03-05T16:25:58.612Z,99210.75
2023-03-05T16:28:30.717Z,99213.68
2023-03-05T16:31:03.539Z,99213.09
2023-03-05T16:33:37.262Z,99206.88
2023-03-05T16:36:21.073Z,99202.75
2023-03-05T16:38:55.940Z,99205.06
2023-03-05T16:41:29.399Z,99215.02
2023-03-05T16:44:02.008Z,99219.41
2023-03-05T16:46:35.572Z,99225.45
2023-03-05T16:49:08.797Z,99220.56
2023-03-05T16:51:42.165Z,99215.06
2023-03-05T16:54:15.140Z,99222.59
2023-03-05T16:56:47.703Z,99215.03
2023-03-05T16:59:20.048Z,99217.56
2023-03-05T17:01:52.532Z,99214.99
2023-03-05T17:04:24.909Z,99218.61
2023-03-05T17:06:57.936Z,99213.77
2023-03-05T17:09:31.818Z,99218.61
2023-03-05T17:12:05.535Z,99223.17
2023-03-05T17:14:38.783Z,99219.84
2023-03-05T17:17:11.901Z,99218.75
2023-03-05T17:19:45.008Z,99213.01
2023-03-05T17:22:17.415Z,99214.48
2023-03-05T17:24:49.773Z,99215.47
2023-03-05T17:27:22.816Z,99207.18
2023-03-05T17:29:55.697Z,99211.23
2023-03-05T17:32:29.061Z,99207.18
2023-03-05T17:35:03.219Z,99207.51
2023-03-05T17:37:35.880Z,99204.90
2023-03-05T17:40:10.903Z,99208.30
2023-03-05T17:42:43.352Z,99204.28
2023-03-05T17:45:16.402Z,99203.86
2023-03-05T17:47:49.158Z,99197.70
2023-03-05T17:50:21.771Z,99196.14
2023-03-05T17:52:54.339Z,99203.56
2023-03-05T17:55:27.481Z,99196.03
2023-03-05T17:57:59.960Z,99194.59
2023-03-05T18:00:32.638Z,99193.69
2023-03-05T18:03:05.541Z,99198.14
2023-03-05T18:05:38.375Z,99198.72
2023-03-05T18:08:11.511Z,99192.64
2023-03-05T18:10:44.817Z,99202.16
2023-03-05T18:13:17.396Z,99198.50
2023-03-05T18:15:50.198Z,99198.79
2023-03-05T18:18:22.920Z,99202.27
2023-03-05T18:20:55.295Z,99198.36
2023-03-05T18:26:12.015Z,99205.48
2023-03-05T18:28:44.780Z,99204.53
2023-03-05T18:31:18.405Z,99201.97
2023-03-05T18:33:52.616Z,99207.25
2023-03-05T18:36:25.660Z,99206.09
2023-03-05T18:38:58.792Z,99205.07
2023-03-05T18:41:31.494Z,99205.83
2023-03-05T18:44:05.013Z,99198.02
2023-03-05T18:46:38.060Z,99200.07
2023-03-05T18:49:10.449Z,99205.42
2023-03-05T18:51:44.046Z,99202.85
2023-03-05T18:54:17.220Z,99199.05
2023-03-05T18:56:50.246Z,99203.38
2023-03-05T18:59:22.730Z,99201.60
2023-03-05T19:01:55.007Z,99199.85
2023-03-05T19:04:27.747Z,99199.62
2023-03-05T19:07:00.186Z,99205.33
2023-03-05T19:09:34.924Z,99207.32
2023-03-05T19:12:08.551Z,99211.24
2023-03-05T19:14:42.653Z,99209.17
2023-03-05T19:17:15.815Z,99208.30
2023-03-05T19:19:54.433Z,99208.77
2023-03-05T19:22:28.761Z,99208.72
2023-03-05T19:25:01.903Z,99204.70
2023-03-05T19:27:35.108Z,99204.81
2023-03-05T19:30:09.416Z,99207.59
2023-03-05T19:32:41.860Z,99203.47
2023-03-05T19:35:16.829Z,99205.98
2023-03-05T19:37:49.301Z,99201.66
2023-03-05T19:40:21.969Z,99195.95
2023-03-05T19:42:54.594Z,99193.58
2023-03-05T19:45:27.596Z,99199.73
2023-03-05T19:47:59.939Z,99190.31
2023-03-05T19:50:34.441Z,99201.67
2023-03-05T19:53:06.676Z,99201.00
2023-03-05T19:55:41.289Z,99198.56
2023-03-05T19:58:13.796Z,99194.16
2023-03-05T20:00:46.616Z,99200.09
2023-03-05T20:03:19.525Z,99197.23
2023-03-05T20:05:52.243Z,99199.70
2023-03-05T20:08:24.857Z,99190.84
2023-03-05T20:10:58.617Z,99199.70
2023-03-05T20:13:31.922Z,99185.51
2023-03-05T20:16:05.293Z,99191.15
2023-03-05T20:18:37.815Z,99188.48
2023-03-05T20:21:10.374Z,99187.34
2023-03-05T20:23:43.898Z,99185.64
2023-03-05T20:26:17.841Z,99186.57
2023-03-05T20:28:51.154Z,99185.07
2023-03-05T20:31:25.759Z,99183.56
2023-03-05T20:33:58.886Z,99176.13
2023-03-05T20:36:31.492Z,99174.52
2023-03-05T20:39:06.021Z,99171.38
2023-03-05T20:41:40.101Z,99168.61
2023-03-05T20:44:14.253Z,99161.44
2023-03-05T20:46:48.305Z,99158.87
2023-03-05T20:49:21.528Z,99157.63
2023-03-05T20:51:54.333Z,99153.27
2023-03-05T20:54:28.261Z,99145.66
2023-03-05T20:57:00.754Z,99152.52
2023-03-05T20:59:33.355Z,99154.25
2023-03-05T21:02:05.936Z,99164.11
2023-03-05T21:04:39.137Z,99154.20
2023-03-05T21:07:11.929Z,99142.86
2023-03-05T21:09:44.514Z,99146.22
2023-03-05T21:12:17.358Z,99150.88
2023-03-05T21:14:49.927Z,99147.94
2023-03-05T21:17:23.142Z,99147.67
2023-03-05T21:19:56.022Z,99148.42
2023-03-05T21:22:28.400Z,99153.58
2023-03-05T21:25:04.845Z,99150.16
2023-03-05T21:27:38.100Z,99147.86
2023-03-05T21:30:33.884Z,99149.39
2023-03-05T21:33:10.037Z,99140.25
2023-03-05T21:35:43.568Z,99149.21
2023-03-05T21:38:17.130Z,99140.44
2023-03-05T21:40:51.459Z,99149.30
2023-03-05T21:43:25.342Z,99144.91
2023-03-05T21:45:58.067Z,99144.44
2023-03-05T21:48:30.544Z,99146.55
2023-03-05T21:51:08.742Z,99138.14
2023-03-05T21:53:41.270Z,99134.91
2023-03-05T21:56:17.763Z,99138.34
2023-03-05T21:58:50.222Z,99133.29
2023-03-05T22:01:22.601Z,99134.16
2023-03-05T22:03:55.051Z,99133.19
2023-03-05T22:06:29.331Z,99125.92
2023-03-05T22:09:01.696Z,99127.06
2023-03-05T22:11:34.450Z,99125.34
2023-03-05T22:14:06.911Z,99133.52
2023-03-05T22:16:39.780Z,99129.05
2023-03-05T22:19:12.193Z,99129.52
2023-03-05T22:21:45.010Z,99130.09
2023-03-05T22:24:17.362Z,99134.86
2023-03-05T22:26:49.977Z,99135.23
2023-03-05T22:29:22.430Z,99137.43
2023-03-05T22:31:56.213Z,99131.59
2023-03-05T22:34:29.152Z,99129.09
2023-03-05T22:37:02.279Z,99133.30
2023-03-05T22:39:35.067Z,99137.11
2023-03-05T22:42:08.179Z,99133.94
2023-03-05T22:44:40.852Z,99131.27
2023-03-05T22:47:13.632Z,99133.47
2023-03-05T22:49:46.998Z,99132.60
2023-03-05T22:52:19.407Z,99134.20
2023-03-05T22:54:53.862Z,99121.27
2023-03-05T22:57:26.431Z,99125.06
2023-03-05T22:59:59.390Z,99124.00
2023-03-05T23:02:32.214Z,99122.56
2023-03-05T23:05:05.760Z,99114.66
2023-03-05T23:07:40.913Z,99111.32
2023-03-05T23:10:18.814Z,99112.66
2023-03-05T23:12:53.836Z,99113.62
2023-03-05T23:15:30.838Z,99112.95
2023-03-05T23:18:04.509Z,99106.18
2023-03-05T23:20:38.132Z,99111.89
2023-03-05T23:23:10.610Z,99101.21
2023-03-05T23:25:42.886Z,99108.84
2023-03-05T23:28:15.631Z,99101.21
2023-03-05T23:30:49.962Z,99102.81
2023-03-05T23:33:24.013Z,99105.28
2023-03-05T23:35:59.591Z,99094.30
2023-03-05T23:38:33.447Z,99100.30
2023-03-05T23:41:09.608Z,99099.23
2023-03-05T23:43:42.621Z,99094.82
2023-03-05T23:46:16.060Z,99092.41
2023-03-05T23:48:48.712Z,99085.63
2023-03-05T23:51:21.215Z,99082.86
2023-03-05T23:53:53.605Z,99087.03
2023-03-05T23:56:25.955Z,99084.62
2023-03-05T23:58:59.882Z,99079.94
